Time;durP1;ratioP1;P1;durP2;ratioP2;P2;SDS_P1;SDS_P2;PMS_P1;PMS_P2;Temp;Humidity;BMP_temperature;BMP_pressure;BME280_temperature;BME280_humidity;BME280_pressure;Samples;Min_cycle;Max_cycle;Signal;HPM_P1;HPM_P2
2022/10/23 00:01:33;;;;;;;24.67;11.88;;;11.90;99.90;;;;;;5049438;28;20052;-76
2022/10/23 00:04:20;;;;;;;23.10;12.15;;;11.90;99.90;;;;;;5031106;28;20512;-75
2022/10/23 00:06:47;;;;;;;23.17;11.20;;;11.90;99.90;;;;;;5050903;28;20049;-76
2022/10/23 00:09:16;;;;;;;23.85;11.25;;;11.80;99.90;;;;;;5054219;28;20485;-77
2022/10/23 00:11:43;;;;;;;19.40;10.98;;;11.80;99.90;;;;;;5053678;28;20025;-77
2022/10/23 00:14:09;;;;;;;15.70;9.52;;;11.80;99.90;;;;;;5035099;28;20029;-77
2022/10/23 00:16:35;;;;;;;16.63;10.43;;;11.80;99.90;;;;;;5052557;28;20762;-77
2022/10/23 00:19:02;;;;;;;21.83;11.50;;;11.70;99.90;;;;;;5053354;28;20024;-77
2022/10/23 00:21:28;;;;;;;22.98;12.75;;;11.70;99.90;;;;;;5035847;28;20021;-75
2022/10/23 00:23:53;;;;;;;27.50;11.25;;;11.70;99.90;;;;;;5034387;28;20051;-76
2022/10/23 00:26:19;;;;;;;64.63;10.43;;;11.60;99.90;;;;;;5035581;28;20036;-76
2022/10/23 00:28:48;;;;;;;110.95;9.90;;;11.70;99.90;;;;;;5035083;28;20033;-76
2022/10/23 00:31:13;;;;;;;50.20;9.55;;;11.70;99.90;;;;;;5060175;28;20025;-76
2022/10/23 00:33:40;;;;;;;16.85;9.35;;;11.70;99.90;;;;;;5053956;28;20060;-77
2022/10/23 00:36:07;;;;;;;63.92;8.65;;;11.70;99.90;;;;;;5052065;28;20063;-77
2022/10/23 00:38:34;;;;;;;19.13;10.00;;;11.70;99.90;;;;;;5053015;28;20028;-76
2022/10/23 00:41:00;;;;;;;20.60;8.35;;;11.70;99.90;;;;;;5053187;28;20040;-77
2022/10/23 00:43:27;;;;;;;45.70;9.40;;;11.70;99.90;;;;;;5054570;28;20033;-77
2022/10/23 00:45:53;;;;;;;17.48;8.75;;;11.70;99.90;;;;;;5052959;28;20045;-76
2022/10/23 00:48:19;;;;;;;16.00;8.30;;;11.70;99.90;;;;;;5054904;28;20025;-77
2022/10/23 00:50:48;;;;;;;24.55;8.93;;;11.60;99.90;;;;;;5053810;28;20067;-77
2022/10/23 00:53:15;;;;;;;18.17;8.10;;;11.60;99.90;;;;;;5035158;28;20033;-77
2022/10/23 00:55:45;;;;;;;14.20;7.78;;;11.50;99.90;;;;;;5052327;28;20020;-78
2022/10/23 00:58:17;;;;;;;14.65;8.07;;;11.50;99.90;;;;;;5053365;28;20128;-77
2022/10/23 01:00:47;;;;;;;17.70;7.40;;;11.50;99.90;;;;;;5034687;28;20032;-76
2022/10/23 01:03:15;;;;;;;13.45;7.25;;;11.50;99.90;;;;;;5034294;28;20032;-75
2022/10/23 01:05:48;;;;;;;14.20;7.95;;;11.40;99.90;;;;;;5051745;28;20025;-75
2022/10/23 01:08:59;;;;;;;19.30;8.17;;;11.40;99.90;;;;;;5051775;28;20081;-77
2022/10/23 01:11:51;;;;;;;15.63;7.88;;;11.40;99.90;;;;;;5013376;28;20545;-76
2022/10/23 01:14:28;;;;;;;12.73;7.40;;;11.40;99.90;;;;;;5038277;28;20033;-77
2022/10/23 01:17:09;;;;;;;11.95;6.10;;;11.40;99.90;;;;;;5051245;28;20031;-75
2022/10/23 01:19:55;;;;;;;11.82;7.07;;;11.30;99.90;;;;;;5033640;28;20033;-76
2022/10/23 01:23:06;;;;;;;11.70;7.20;;;11.40;99.90;;;;;;5051255;28;20021;-75
2022/10/23 01:26:09;;;;;;;14.93;7.40;;;11.30;99.90;;;;;;5012980;28;20092;-77
2022/10/23 01:28:40;;;;;;;24.63;7.65;;;11.30;99.90;;;;;;5033374;28;20064;-75
2022/10/23 01:31:13;;;;;;;34.38;8.18;;;11.30;99.90;;;;;;5033641;28;20477;-75
2022/10/23 01:33:45;;;;;;;29.35;7.60;;;11.30;99.90;;;;;;5035483;28;20033;-76
2022/10/23 01:36:14;;;;;;;89.07;7.75;;;11.30;99.90;;;;;;5034459;28;20025;-78
2022/10/23 01:38:55;;;;;;;19.90;7.90;;;11.30;99.90;;;;;;5051469;28;20036;-75
2022/10/23 01:41:24;;;;;;;14.63;7.32;;;11.30;99.90;;;;;;5051061;28;20098;-75
2022/10/23 01:44:35;;;;;;;13.30;6.95;;;11.30;99.90;;;;;;5036821;28;20111;-74
2022/10/23 01:47:02;;;;;;;22.85;7.10;;;11.30;99.90;;;;;;5051222;28;20053;-77
2022/10/23 01:49:29;;;;;;;18.88;7.15;;;11.30;99.90;;;;;;5032396;28;20049;-76
2022/10/23 01:51:59;;;;;;;13.68;7.13;;;11.20;99.90;;;;;;5050790;28;20025;-76
2022/10/23 01:54:30;;;;;;;9.43;6.10;;;11.10;99.90;;;;;;5038433;28;20045;-74
2022/10/23 01:56:58;;;;;;;38.72;9.48;;;11.10;99.90;;;;;;5040451;28;20082;-76
2022/10/23 01:59:30;;;;;;;21.05;7.47;;;11.10;99.90;;;;;;5039443;28;20018;-74
2022/10/23 02:01:59;;;;;;;20.15;7.13;;;11.10;99.90;;;;;;5040429;28;20075;-76
2022/10/23 02:04:32;;;;;;;21.63;7.30;;;11.10;99.90;;;;;;5040421;28;20020;-76
2022/10/23 02:06:58;;;;;;;10.98;6.35;;;11.10;99.90;;;;;;5040055;28;20029;-75
2022/10/23 02:09:24;;;;;;;14.60;6.28;;;11.00;99.90;;;;;;5040343;28;20038;-76
2022/10/23 02:12:05;;;;;;;15.43;6.32;;;11.00;99.90;;;;;;5039769;28;20040;-75
2022/10/23 02:14:56;;;;;;;14.75;7.35;;;11.00;99.90;;;;;;5039760;28;20584;-75
2022/10/23 02:17:50;;;;;;;16.67;7.07;;;10.90;99.90;;;;;;5038590;28;20025;-75
2022/10/23 02:20:27;;;;;;;23.42;7.80;;;10.90;99.90;;;;;;5040005;28;20036;-76
2022/10/23 02:23:28;;;;;;;18.27;7.30;;;10.90;99.90;;;;;;5038491;28;20041;-74
2022/10/23 02:25:59;;;;;;;15.18;8.10;;;10.80;99.90;;;;;;5033342;28;20054;-75
2022/10/23 02:28:33;;;;;;;13.90;7.97;;;10.80;99.90;;;;;;5039603;28;20060;-76
2022/10/23 02:30:59;;;;;;;19.15;8.20;;;10.80;99.90;;;;;;5040061;28;20117;-77
2022/10/23 02:33:29;;;;;;;20.23;9.25;;;10.70;99.90;;;;;;5039575;28;20044;-76
2022/10/23 02:35:55;;;;;;;18.58;9.73;;;10.70;99.90;;;;;;5039649;28;20141;-75
2022/10/23 02:38:36;;;;;;;18.52;10.23;;;10.70;99.90;;;;;;5040010;28;20463;-75
2022/10/23 02:41:23;;;;;;;22.83;9.85;;;10.60;99.90;;;;;;5039861;28;20087;-74
2022/10/23 02:44:04;;;;;;;17.05;9.05;;;10.60;99.90;;;;;;5039928;28;20120;-76
2022/10/23 02:46:48;;;;;;;15.95;8.88;;;10.60;99.90;;;;;;5038226;28;20057;-75
2022/10/23 02:49:43;;;;;;;17.73;9.20;;;10.50;99.90;;;;;;5039981;28;20065;-77
2022/10/23 02:52:40;;;;;;;19.40;10.00;;;10.50;99.90;;;;;;5036143;28;20057;-76
2022/10/23 02:55:28;;;;;;;17.48;8.85;;;10.50;99.90;;;;;;5050150;28;20037;-75
2022/10/23 02:58:26;;;;;;;23.40;9.68;;;10.50;99.90;;;;;;5049687;28;20035;-76
2022/10/23 03:00:58;;;;;;;17.48;8.40;;;10.40;99.90;;;;;;5032808;28;20398;-75
2022/10/23 03:03:34;;;;;;;15.75;9.05;;;10.40;99.90;;;;;;5050983;28;20029;-74
2022/10/23 03:06:00;;;;;;;16.85;8.95;;;10.40;99.90;;;;;;5048902;28;20049;-74
2022/10/23 03:08:25;;;;;;;19.08;9.02;;;10.30;99.90;;;;;;5049338;28;20125;-75
2022/10/23 03:10:51;;;;;;;15.32;8.40;;;10.30;99.90;;;;;;5029945;28;20032;-76
2022/10/23 03:13:17;;;;;;;19.45;8.98;;;10.30;99.90;;;;;;5032484;28;20041;-75
2022/10/23 03:15:43;;;;;;;14.20;8.30;;;10.30;99.90;;;;;;5033630;28;20030;-76
2022/10/23 03:18:09;;;;;;;18.33;8.65;;;10.30;99.90;;;;;;5049582;28;20068;-76
2022/10/23 03:20:35;;;;;;;17.73;9.40;;;10.30;99.90;;;;;;5029942;28;20033;-76
2022/10/23 03:23:00;;;;;;;18.90;9.68;;;10.30;99.90;;;;;;5031396;28;20024;-75
2022/10/23 03:25:27;;;;;;;27.58;10.00;;;10.30;99.90;;;;;;5048658;28;20039;-75
2022/10/23 03:27:52;;;;;;;22.13;9.75;;;10.30;99.90;;;;;;5048809;28;20040;-75
2022/10/23 03:30:18;;;;;;;17.75;9.23;;;10.30;99.90;;;;;;5048451;28;20025;-76
2022/10/23 03:32:44;;;;;;;17.95;9.57;;;10.30;99.90;;;;;;5047814;28;20028;-76
2022/10/23 03:35:10;;;;;;;23.98;9.73;;;10.20;99.90;;;;;;5051040;28;20028;-76
2022/10/23 03:37:35;;;;;;;25.23;9.55;;;10.20;99.90;;;;;;5049321;28;20022;-75
2022/10/23 03:40:01;;;;;;;25.80;10.07;;;10.20;99.90;;;;;;5050216;28;20160;-76
2022/10/23 03:42:27;;;;;;;30.52;9.45;;;10.20;99.90;;;;;;5051803;28;20025;-76
2022/10/23 03:44:52;;;;;;;19.08;9.13;;;10.20;99.90;;;;;;5052902;28;20020;-75
2022/10/23 03:47:18;;;;;;;18.92;9.20;;;10.20;99.90;;;;;;5051788;28;20091;-76
2022/10/23 03:49:44;;;;;;;15.73;9.20;;;10.20;99.90;;;;;;5053343;28;20021;-75
2022/10/23 03:52:09;;;;;;;21.60;8.95;;;10.20;99.90;;;;;;5036188;28;20029;-76
2022/10/23 03:54:35;;;;;;;19.45;8.57;;;10.10;99.90;;;;;;5051966;28;20427;-75
2022/10/23 03:57:01;;;;;;;15.60;8.85;;;10.20;99.90;;;;;;5051656;28;20033;-75
2022/10/23 03:59:27;;;;;;;18.30;8.90;;;10.20;99.90;;;;;;5052951;28;20021;-75
2022/10/23 04:01:53;;;;;;;17.80;8.45;;;10.10;99.90;;;;;;5054549;28;20112;-75
2022/10/23 04:04:19;;;;;;;21.55;8.93;;;10.10;99.90;;;;;;5052685;28;20027;-74
2022/10/23 04:06:44;;;;;;;16.70;8.43;;;10.10;99.90;;;;;;5052184;28;20119;-75
2022/10/23 04:09:10;;;;;;;13.82;8.10;;;10.00;99.90;;;;;;5050846;28;20064;-74
2022/10/23 04:11:36;;;;;;;15.32;8.25;;;10.00;99.90;;;;;;5033888;28;20041;-74
2022/10/23 04:14:01;;;;;;;17.05;8.90;;;10.10;99.90;;;;;;5051351;28;20082;-75
2022/10/23 04:16:27;;;;;;;15.88;9.13;;;10.10;99.90;;;;;;5033332;28;20021;-74
2022/10/23 04:18:52;;;;;;;20.13;9.32;;;10.10;99.90;;;;;;5054453;28;20021;-75
2022/10/23 04:21:18;;;;;;;20.10;9.15;;;10.10;99.90;;;;;;5034960;28;20033;-76
2022/10/23 04:23:44;;;;;;;21.90;9.98;;;10.10;99.90;;;;;;5053395;28;20140;-74
2022/10/23 04:26:10;;;;;;;20.77;11.02;;;10.20;99.90;;;;;;5051450;28;20632;-76
2022/10/23 04:28:36;;;;;;;23.45;10.55;;;10.20;99.90;;;;;;5052271;28;20017;-75
2022/10/23 04:31:02;;;;;;;18.42;10.68;;;10.20;99.90;;;;;;5051575;28;20070;-75
2022/10/23 04:33:27;;;;;;;16.63;9.77;;;10.20;99.90;;;;;;5054424;28;20028;-76
2022/10/23 04:35:53;;;;;;;19.08;10.48;;;10.10;99.90;;;;;;5050778;28;20029;-74
2022/10/23 04:38:19;;;;;;;26.40;10.35;;;10.10;99.90;;;;;;5053592;28;20025;-75
2022/10/23 04:40:44;;;;;;;17.95;10.95;;;10.10;99.90;;;;;;5053194;28;20025;-75
2022/10/23 04:43:10;;;;;;;26.00;9.63;;;10.10;99.90;;;;;;5053016;28;20041;-76
2022/10/23 04:45:36;;;;;;;22.63;10.88;;;10.10;99.90;;;;;;5034021;28;20378;-75
2022/10/23 04:48:02;;;;;;;24.70;10.98;;;10.10;99.90;;;;;;5052129;28;20036;-75
2022/10/23 04:50:28;;;;;;;20.02;10.30;;;10.10;99.90;;;;;;5051513;28;20029;-75
2022/10/23 04:52:57;;;;;;;21.38;11.13;;;10.10;99.90;;;;;;5051845;28;20092;-74
2022/10/23 04:55:24;;;;;;;23.38;11.23;;;10.10;99.90;;;;;;5052042;28;20044;-75
2022/10/23 04:57:50;;;;;;;25.23;11.25;;;10.00;99.90;;;;;;5051825;28;20032;-74
2022/10/23 05:00:16;;;;;;;24.23;10.77;;;9.90;99.90;;;;;;5036198;28;20022;-75
2022/10/23 05:02:42;;;;;;;22.80;11.02;;;10.00;99.90;;;;;;5035067;28;20031;-75
2022/10/23 05:05:08;;;;;;;24.42;10.55;;;9.90;99.90;;;;;;5034270;28;20028;-76
2022/10/23 05:07:35;;;;;;;24.35;10.30;;;9.90;99.90;;;;;;5051498;28;20044;-75
2022/10/23 05:10:02;;;;;;;22.30;10.38;;;9.90;99.90;;;;;;5051774;28;20025;-75
2022/10/23 05:12:27;;;;;;;20.90;10.82;;;9.90;99.90;;;;;;5052116;28;20023;-75
2022/10/23 05:14:53;;;;;;;20.42;10.50;;;10.00;99.90;;;;;;5035560;28;20049;-75
2022/10/23 05:17:33;;;;;;;27.67;11.10;;;9.90;99.90;;;;;;5052917;28;20037;-76
2022/10/23 05:20:01;;;;;;;23.25;11.00;;;9.90;99.90;;;;;;5053506;28;20040;-75
2022/10/23 05:22:32;;;;;;;18.42;10.07;;;9.90;99.90;;;;;;5051690;28;20033;-75
2022/10/23 05:24:57;;;;;;;24.35;11.40;;;10.00;99.90;;;;;;5052152;28;20052;-74
2022/10/23 05:27:23;;;;;;;26.15;10.38;;;10.00;99.90;;;;;;5051321;28;20413;-75
2022/10/23 05:29:49;;;;;;;18.98;10.10;;;10.00;99.90;;;;;;5051489;28;20094;-76
2022/10/23 05:32:23;;;;;;;18.42;9.48;;;9.90;99.90;;;;;;5032841;28;20033;-76
2022/10/23 05:34:49;;;;;;;18.33;10.55;;;9.90;99.90;;;;;;5033599;28;20044;-75
2022/10/23 05:37:15;;;;;;;20.23;9.60;;;9.90;99.90;;;;;;5051431;28;20037;-76
2022/10/23 05:39:41;;;;;;;53.42;11.50;;;9.90;99.90;;;;;;5051139;28;20021;-76
2022/10/23 05:42:07;;;;;;;28.92;10.75;;;10.00;99.90;;;;;;5051081;28;20055;-76
2022/10/23 05:44:33;;;;;;;27.33;10.68;;;10.00;99.90;;;;;;5051955;28;20032;-74
2022/10/23 05:46:58;;;;;;;20.15;10.43;;;10.10;99.90;;;;;;5051849;28;20120;-75
2022/10/23 05:49:25;;;;;;;19.73;10.60;;;10.00;99.90;;;;;;5053269;28;20032;-76
2022/10/23 05:51:51;;;;;;;23.70;11.35;;;10.00;99.90;;;;;;5053731;28;20041;-76
2022/10/23 05:54:17;;;;;;;18.48;10.95;;;10.00;99.90;;;;;;5052503;28;20059;-77
2022/10/23 05:56:42;;;;;;;19.13;10.40;;;10.00;99.90;;;;;;5033562;28;20116;-77
2022/10/23 05:59:09;;;;;;;21.65;11.63;;;10.00;99.90;;;;;;5032942;28;20037;-77
2022/10/23 06:01:35;;;;;;;18.50;10.13;;;10.00;99.90;;;;;;5053138;28;20017;-77
2022/10/23 06:04:02;;;;;;;21.48;11.30;;;10.00;99.90;;;;;;5050384;28;20094;-76
2022/10/23 06:06:28;;;;;;;19.30;10.50;;;9.90;99.90;;;;;;5052299;28;20044;-76
2022/10/23 06:08:54;;;;;;;21.02;10.25;;;9.90;99.90;;;;;;5032759;28;20029;-76
2022/10/23 06:11:20;;;;;;;19.20;10.82;;;9.90;99.90;;;;;;5054464;28;20033;-77
2022/10/23 06:13:47;;;;;;;18.33;10.90;;;9.80;99.90;;;;;;5054171;28;20044;-77
2022/10/23 06:16:21;;;;;;;21.67;11.32;;;9.90;99.90;;;;;;5053480;28;20025;-76
2022/10/23 06:18:47;;;;;;;23.33;11.20;;;9.90;99.90;;;;;;5031262;28;20025;-77
2022/10/23 06:21:13;;;;;;;20.13;11.60;;;9.90;99.90;;;;;;5034466;28;20055;-78
2022/10/23 06:23:40;;;;;;;19.33;11.18;;;9.80;99.90;;;;;;5034400;28;20029;-79
2022/10/23 06:26:08;;;;;;;22.25;12.32;;;9.90;99.90;;;;;;5051555;28;20045;-76
2022/10/23 06:28:34;;;;;;;18.73;10.30;;;9.90;99.90;;;;;;5034223;28;20144;-76
2022/10/23 06:31:06;;;;;;;19.73;10.48;;;9.90;99.90;;;;;;5034901;28;20071;-75
2022/10/23 06:33:32;;;;;;;15.10;9.18;;;9.90;99.90;;;;;;5033645;28;20041;-75
2022/10/23 06:35:58;;;;;;;17.67;10.48;;;10.00;99.90;;;;;;5050843;28;20104;-76
2022/10/23 06:38:24;;;;;;;20.35;10.50;;;10.00;99.90;;;;;;5052287;28;20038;-78
2022/10/23 06:40:56;;;;;;;16.77;10.60;;;10.00;99.90;;;;;;5056413;28;20028;-78
2022/10/23 06:43:22;;;;;;;22.40;10.57;;;10.00;99.90;;;;;;5051106;28;20087;-75
2022/10/23 06:45:48;;;;;;;19.45;10.35;;;10.10;99.90;;;;;;5051631;28;20706;-76
2022/10/23 06:48:14;;;;;;;17.95;10.30;;;10.10;99.90;;;;;;5033765;28;20044;-77
2022/10/23 06:50:40;;;;;;;19.73;10.40;;;10.10;99.90;;;;;;5050866;28;20036;-77
2022/10/23 06:53:06;;;;;;;19.38;10.55;;;10.10;99.90;;;;;;5026032;28;20046;-76
2022/10/23 06:55:32;;;;;;;18.40;10.25;;;10.10;99.90;;;;;;5020498;28;20033;-75
2022/10/23 06:57:58;;;;;;;20.55;9.90;;;10.10;99.90;;;;;;5020748;28;20045;-77
2022/10/23 07:00:24;;;;;;;20.52;9.70;;;10.10;99.90;;;;;;5020324;28;20060;-76
2022/10/23 07:02:51;;;;;;;16.77;9.63;;;10.10;99.90;;;;;;5032628;28;20029;-75
2022/10/23 07:05:17;;;;;;;16.10;8.70;;;10.20;99.90;;;;;;5030826;28;20064;-77
2022/10/23 07:07:43;;;;;;;23.00;9.68;;;10.20;99.90;;;;;;5032636;28;20052;-76
2022/10/23 07:10:11;;;;;;;19.02;10.15;;;10.30;99.90;;;;;;5030900;28;20033;-76
2022/10/23 07:12:37;;;;;;;22.02;10.10;;;10.30;99.90;;;;;;5018315;28;20029;-75
2022/10/23 07:15:03;;;;;;;20.73;10.20;;;10.40;99.90;;;;;;5021223;28;20060;-75
2022/10/23 07:17:28;;;;;;;20.42;9.70;;;10.40;99.90;;;;;;5033968;28;20030;-77
2022/10/23 07:19:54;;;;;;;21.42;10.13;;;10.50;99.90;;;;;;5033433;28;20036;-75
2022/10/23 07:22:19;;;;;;;17.23;10.15;;;10.50;99.90;;;;;;5037146;28;20548;-75
2022/10/23 07:24:45;;;;;;;14.80;9.45;;;10.60;99.90;;;;;;5024267;28;20022;-76
2022/10/23 07:27:11;;;;;;;16.83;9.48;;;10.60;99.90;;;;;;5024430;28;20049;-75
2022/10/23 07:29:37;;;;;;;16.90;8.88;;;10.70;99.90;;;;;;5033938;28;20052;-76
2022/10/23 07:32:03;;;;;;;18.27;8.82;;;10.70;99.90;;;;;;5034325;28;20622;-78
2022/10/23 07:34:30;;;;;;;18.83;9.38;;;10.80;99.90;;;;;;5023509;28;20533;-75
2022/10/23 07:36:56;;;;;;;18.38;9.43;;;10.90;99.90;;;;;;5036141;28;20017;-76
2022/10/23 07:39:22;;;;;;;18.45;9.73;;;10.90;99.90;;;;;;5037099;28;20089;-76
2022/10/23 07:41:48;;;;;;;18.88;8.93;;;10.90;99.90;;;;;;5035486;28;20022;-76
2022/10/23 07:44:14;;;;;;;19.40;9.15;;;11.00;99.90;;;;;;5034572;28;20465;-77
2022/10/23 07:46:39;;;;;;;19.20;9.30;;;11.00;99.90;;;;;;5036722;28;20041;-77
2022/10/23 07:49:10;;;;;;;16.90;8.48;;;11.00;99.90;;;;;;5023977;28;20034;-77
2022/10/23 07:51:36;;;;;;;16.30;8.60;;;11.10;99.90;;;;;;5035457;28;20052;-77
2022/10/23 07:54:01;;;;;;;22.10;9.35;;;11.20;99.90;;;;;;5049132;28;20049;-76
2022/10/23 07:56:28;;;;;;;20.00;9.00;;;11.20;99.90;;;;;;5058229;28;20070;-76
2022/10/23 07:58:54;;;;;;;15.32;7.70;;;11.20;99.90;;;;;;5054769;28;20116;-77
2022/10/23 08:01:26;;;;;;;18.23;8.80;;;11.20;99.90;;;;;;5054431;28;20025;-77
2022/10/23 08:03:52;;;;;;;20.55;9.55;;;11.30;99.90;;;;;;5053090;28;20036;-77
2022/10/23 08:06:17;;;;;;;15.65;8.25;;;11.30;99.90;;;;;;5037743;28;20037;-77
2022/10/23 08:08:43;;;;;;;18.38;8.13;;;11.40;99.90;;;;;;5036965;28;20044;-77
2022/10/23 08:11:12;;;;;;;20.05;9.00;;;11.40;99.90;;;;;;5036045;28;20052;-77
2022/10/23 08:13:38;;;;;;;16.48;7.88;;;11.50;99.90;;;;;;5053992;28;20046;-77
2022/10/23 08:16:04;;;;;;;18.02;8.43;;;11.50;99.90;;;;;;5037794;28;20096;-78
2022/10/23 08:18:29;;;;;;;14.30;8.02;;;11.50;99.90;;;;;;5054231;28;20088;-76
2022/10/23 08:21:00;;;;;;;18.52;9.07;;;11.50;99.90;;;;;;5035323;28;20131;-75
2022/10/23 08:23:26;;;;;;;18.58;8.88;;;11.60;99.90;;;;;;5054748;28;20029;-76
2022/10/23 08:25:57;;;;;;;19.40;9.30;;;11.60;99.90;;;;;;5034743;28;20112;-76
2022/10/23 08:28:23;;;;;;;20.27;9.73;;;11.60;99.90;;;;;;5036224;28;20044;-77
2022/10/23 08:30:49;;;;;;;15.07;7.18;;;11.60;99.90;;;;;;5035326;28;20033;-75
2022/10/23 08:33:14;;;;;;;13.85;8.60;;;11.60;99.90;;;;;;5052934;28;20033;-76
2022/10/23 08:35:40;;;;;;;18.95;8.18;;;11.70;99.90;;;;;;5036281;28;20037;-76
2022/10/23 08:38:06;;;;;;;13.90;7.57;;;11.70;99.90;;;;;;5053722;28;20044;-76
2022/10/23 08:40:33;;;;;;;15.40;8.50;;;11.70;99.90;;;;;;5035073;28;20039;-77
2022/10/23 08:43:12;;;;;;;20.63;9.80;;;11.70;99.90;;;;;;5035242;28;20044;-76
2022/10/23 08:45:45;;;;;;;21.92;9.45;;;11.80;99.90;;;;;;5036606;28;20436;-77
2022/10/23 08:48:26;;;;;;;17.92;9.45;;;11.80;99.90;;;;;;5035686;28;20083;-78
2022/10/23 08:50:58;;;;;;;20.60;9.73;;;11.80;99.90;;;;;;5054868;28;20061;-77
2022/10/23 08:53:28;;;;;;;19.30;9.82;;;11.90;99.90;;;;;;5035533;28;20081;-77
2022/10/23 08:56:08;;;;;;;21.75;9.32;;;11.90;99.90;;;;;;5035034;28;20037;-77
2022/10/23 08:58:51;;;;;;;14.27;9.10;;;12.00;99.90;;;;;;5051690;28;20028;-77
2022/10/23 09:01:48;;;;;;;14.43;7.60;;;12.00;99.90;;;;;;5035282;28;20040;-77
2022/10/23 09:04:15;;;;;;;18.60;8.73;;;12.10;99.90;;;;;;5052777;28;20440;-77
2022/10/23 09:07:06;;;;;;;16.50;8.05;;;12.20;99.90;;;;;;5052261;28;20037;-78
2022/10/23 09:10:02;;;;;;;15.35;8.02;;;12.30;99.90;;;;;;5052690;28;20025;-78
2022/10/23 09:12:35;;;;;;;17.17;8.30;;;12.40;99.90;;;;;;5041563;28;20025;-77
2022/10/23 09:15:22;;;;;;;17.55;8.65;;;12.50;99.90;;;;;;5037706;28;20446;-78
2022/10/23 09:17:54;;;;;;;19.20;8.40;;;12.60;99.90;;;;;;5053101;28;20037;-77
2022/10/23 09:20:23;;;;;;;17.73;8.38;;;12.60;99.90;;;;;;5054896;28;20043;-78
2022/10/23 09:22:54;;;;;;;18.95;7.88;;;12.70;99.90;;;;;;5053038;28;20017;-78
2022/10/23 09:25:34;;;;;;;19.27;8.27;;;12.80;99.90;;;;;;5053458;28;20039;-77
2022/10/23 09:28:01;;;;;;;21.15;7.30;;;12.90;99.90;;;;;;5035425;28;20119;-78
2022/10/23 09:30:39;;;;;;;13.07;7.13;;;13.00;99.90;;;;;;5036927;28;20610;-79
2022/10/23 09:33:18;;;;;;;17.55;8.30;;;13.00;99.90;;;;;;5035222;28;20053;-77
2022/10/23 09:36:12;;;;;;;15.68;7.80;;;13.10;99.90;;;;;;5035428;28;20099;-78
2022/10/23 09:38:44;;;;;;;14.80;7.28;;;13.20;99.90;;;;;;5030765;28;20041;-77
2022/10/23 09:41:16;;;;;;;20.40;7.40;;;13.30;99.90;;;;;;5064174;28;20037;-80
2022/10/23 09:43:42;;;;;;;21.95;7.57;;;13.40;99.90;;;;;;5037904;28;20081;-78
2022/10/23 09:46:09;;;;;;;14.20;7.72;;;13.40;99.90;;;;;;5053464;28;20067;-79
2022/10/23 09:48:35;;;;;;;15.88;7.32;;;13.50;99.90;;;;;;5037308;28;20032;-79
2022/10/23 09:51:20;;;;;;;15.68;8.05;;;13.60;99.90;;;;;;5054106;28;20075;-79
2022/10/23 09:53:47;;;;;;;16.45;7.28;;;13.70;99.90;;;;;;5052655;28;20113;-80
2022/10/23 09:56:22;;;;;;;13.73;6.75;;;13.80;99.90;;;;;;5053440;28;20025;-81
2022/10/23 09:59:00;;;;;;;17.15;6.95;;;13.90;99.90;;;;;;5034188;28;20021;-82
2022/10/23 10:01:29;;;;;;;16.13;6.85;;;13.90;99.90;;;;;;5038416;28;20742;-79
2022/10/23 10:03:56;;;;;;;12.45;6.35;;;13.90;99.90;;;;;;5053916;28;20028;-82
2022/10/23 10:06:32;;;;;;;11.60;6.82;;;14.00;99.90;;;;;;5035225;28;20124;-80
2022/10/23 10:09:02;;;;;;;15.77;6.53;;;14.00;99.90;;;;;;5031524;28;20158;-81
2022/10/23 10:11:43;;;;;;;18.08;7.38;;;14.10;99.90;;;;;;5037218;28;20029;-80
2022/10/23 10:14:21;;;;;;;14.10;7.13;;;14.20;99.90;;;;;;5051626;28;20040;-80
2022/10/23 10:16:51;;;;;;;15.40;6.93;;;14.30;99.90;;;;;;5053260;28;20021;-80
2022/10/23 10:19:26;;;;;;;11.27;6.35;;;14.30;99.90;;;;;;5038351;28;20025;-80
2022/10/23 10:22:24;;;;;;;17.80;6.70;;;14.40;99.90;;;;;;5035881;28;20473;-80
2022/10/23 10:25:02;;;;;;;13.85;6.30;;;14.40;99.90;;;;;;5034333;28;20531;-81
2022/10/23 10:27:27;;;;;;;13.70;6.18;;;14.40;99.90;;;;;;5034721;28;20049;-79
2022/10/23 10:30:17;;;;;;;14.25;6.07;;;14.50;99.90;;;;;;5053090;28;20247;-80
2022/10/23 10:33:01;;;;;;;12.52;5.90;;;14.50;99.90;;;;;;5036425;28;20059;-82
2022/10/23 10:35:38;;;;;;;15.63;6.38;;;14.60;99.90;;;;;;5054326;28;20033;-81
2022/10/23 10:38:35;;;;;;;12.70;5.78;;;14.60;99.90;;;;;;5053909;28;20025;-81
2022/10/23 10:41:20;;;;;;;12.68;6.28;;;14.60;99.90;;;;;;5037562;28;20128;-84
2022/10/23 10:43:52;;;;;;;13.43;6.18;;;14.70;99.90;;;;;;5036355;28;20076;-82
2022/10/23 10:46:24;;;;;;;11.63;5.65;;;14.80;99.90;;;;;;5035234;28;20037;-82
2022/10/23 10:49:09;;;;;;;15.55;6.80;;;14.80;99.90;;;;;;5037086;28;20038;-84
2022/10/23 10:51:39;;;;;;;14.60;6.10;;;14.80;99.90;;;;;;5035459;28;20505;-84
2022/10/23 10:54:29;;;;;;;10.88;5.85;;;14.90;99.90;;;;;;5032129;28;20057;-84
2022/10/23 10:56:59;;;;;;;11.52;5.47;;;14.90;99.90;;;;;;5034725;28;20094;-85
2022/10/23 10:59:34;;;;;;;13.30;5.15;;;15.00;99.90;;;;;;5050872;28;20120;-86
2022/10/23 11:02:24;;;;;;;16.25;5.90;;;15.00;99.90;;;;;;5032728;28;20029;-83
2022/10/23 11:05:12;;;;;;;14.73;5.82;;;15.10;99.90;;;;;;5033020;28;20544;-84
2022/10/23 11:07:50;;;;;;;11.60;5.18;;;15.20;99.90;;;;;;5033693;28;20151;-83
2022/10/23 11:10:18;;;;;;;12.60;5.53;;;15.30;99.90;;;;;;5050783;28;20032;-85
2022/10/23 11:12:47;;;;;;;13.02;6.07;;;15.30;99.90;;;;;;5052689;28;20474;-83
2022/10/23 11:15:41;;;;;;;15.32;5.70;;;15.40;99.90;;;;;;5050804;28;20037;-81
2022/10/23 11:18:24;;;;;;;14.30;6.45;;;15.50;99.90;;;;;;5051037;28;20053;-85
2022/10/23 11:21:09;;;;;;;16.48;6.05;;;15.50;99.90;;;;;;5035382;28;20098;-80
2022/10/23 11:24:10;;;;;;;15.20;6.22;;;15.60;99.90;;;;;;5049971;28;20033;-79
2022/10/23 11:27:11;;;;;;;19.27;5.38;;;15.70;99.90;;;;;;5019912;28;20037;-82
2022/10/23 11:29:40;;;;;;;14.73;5.38;;;15.90;99.90;;;;;;5032048;28;20057;-83
2022/10/23 11:32:25;;;;;;;17.20;5.75;;;16.00;99.90;;;;;;5034445;28;20033;-75
2022/10/23 11:34:50;;;;;;;15.43;6.30;;;16.10;99.90;;;;;;5050857;28;20025;-77
2022/10/23 11:37:18;;;;;;;11.45;5.40;;;16.10;99.90;;;;;;5049548;28;20117;-82
2022/10/23 11:39:57;;;;;;;16.98;5.63;;;16.20;99.90;;;;;;5032867;28;20022;-81
2022/10/23 11:42:32;;;;;;;9.35;5.28;;;16.20;99.90;;;;;;5032534;28;20060;-77
2022/10/23 11:44:57;;;;;;;14.80;5.43;;;16.20;99.90;;;;;;5034227;28;20041;-80
2022/10/23 11:47:34;;;;;;;15.15;5.97;;;16.20;99.90;;;;;;5050139;28;20048;-81
2022/10/23 11:50:05;;;;;;;14.60;6.10;;;16.10;99.90;;;;;;5049515;28;20025;-81
2022/10/23 11:52:32;;;;;;;14.02;5.88;;;16.10;99.90;;;;;;5030146;28;20045;-79
2022/10/23 11:55:04;;;;;;;16.75;4.93;;;16.20;99.90;;;;;;5043519;28;20040;-82
2022/10/23 11:57:29;;;;;;;12.23;5.38;;;16.50;99.90;;;;;;5013021;28;20497;-79
2022/10/23 11:59:56;;;;;;;14.98;6.00;;;16.80;99.90;;;;;;5012932;28;20022;-77
2022/10/23 12:02:38;;;;;;;14.00;5.65;;;17.00;99.90;;;;;;5015848;28;20099;-79
2022/10/23 12:05:07;;;;;;;11.73;5.47;;;17.10;99.90;;;;;;5032965;28;20032;-73
2022/10/23 12:07:36;;;;;;;13.40;4.78;;;17.10;99.90;;;;;;5057184;28;20047;-78
2022/10/23 12:10:28;;;;;;;15.45;4.72;;;17.10;99.90;;;;;;5017814;28;20065;-81
2022/10/23 12:12:57;;;;;;;10.38;5.18;;;17.10;99.90;;;;;;5057085;28;20039;-80
2022/10/23 12:15:24;;;;;;;11.50;4.85;;;17.10;99.90;;;;;;5015687;28;20026;-78
2022/10/23 12:17:53;;;;;;;13.25;5.55;;;17.10;99.90;;;;;;5034636;28;20032;-82
2022/10/23 12:20:34;;;;;;;15.30;5.10;;;16.90;99.90;;;;;;5016027;28;20041;-79
2022/10/23 12:22:59;;;;;;;14.18;4.85;;;16.80;99.90;;;;;;5034525;28;20033;-78
2022/10/23 12:25:25;;;;;;;11.85;4.90;;;16.70;99.90;;;;;;5014652;28;20030;-79
2022/10/23 12:28:19;;;;;;;12.75;4.88;;;16.60;99.90;;;;;;5015552;28;20038;-79
2022/10/23 12:30:55;;;;;;;11.35;5.22;;;16.60;99.90;;;;;;5033140;28;20115;-80
2022/10/23 12:33:38;;;;;;;14.38;5.35;;;16.60;99.90;;;;;;5015321;28;20038;-78
2022/10/23 12:36:29;;;;;;;8.48;4.47;;;16.60;99.90;;;;;;5034597;28;20029;-83
2022/10/23 12:38:57;;;;;;;15.00;4.28;;;16.80;99.90;;;;;;5031759;28;20021;-83
2022/10/23 12:41:32;;;;;;;9.50;4.40;;;17.00;99.90;;;;;;5016715;28;20026;-79
2022/10/23 12:44:01;;;;;;;9.88;4.57;;;17.10;99.90;;;;;;5015554;28;20030;-77
2022/10/23 12:46:35;;;;;;;14.15;4.50;;;17.10;99.90;;;;;;5034671;28;20045;-82
2022/10/23 12:49:10;;;;;;;9.93;4.20;;;17.10;99.90;;;;;;5014378;28;20045;-79
2022/10/23 12:51:36;;;;;;;8.00;4.15;;;17.10;99.90;;;;;;5034291;28;20120;-79
2022/10/23 12:54:02;;;;;;;9.15;4.13;;;17.10;99.90;;;;;;5048458;28;20080;-82
2022/10/23 12:56:35;;;;;;;10.35;4.45;;;17.00;99.90;;;;;;5038108;28;20054;-73
2022/10/23 12:59:01;;;;;;;15.80;4.10;;;17.00;99.90;;;;;;5035791;28;20348;-80